Time;durP1;ratioP1;P1;durP2;ratioP2;P2;SDS_P1;SDS_P2;PMS_P1;PMS_P2;Temp;Humidity;BMP_temperature;BMP_pressure;BME280_temperature;BME280_humidity;BME280_pressure;Samples;Min_cycle;Max_cycle;Signal;HPM_P1;HPM_P2
2022/06/02 01:11:47;;;;;;;18.03;16.03;;;;;;;;;;7387252;19;20150;-79
2022/06/02 01:14:25;;;;;;;23.70;17.57;;;;;;;;;;7381611;19;20133;-78
2022/06/02 01:16:57;;;;;;;20.93;18.93;;;;;;;;;;7381755;19;20172;-78
2022/06/02 01:19:41;;;;;;;20.50;18.40;;;;;;;;;;7387509;19;20590;-79
2022/06/02 01:22:26;;;;;;;18.57;16.77;;;;;;;;;;7387350;19;20572;-79
2022/06/02 01:25:06;;;;;;;20.13;18.07;;;;;;;;;;7386769;19;20153;-80
2022/06/02 01:27:47;;;;;;;19.80;17.80;;;;;;;;;;7379753;19;20725;-79
2022/06/02 01:30:21;;;;;;;19.40;17.47;;;;;;;;;;7385762;19;20149;-79
2022/06/02 01:33:06;;;;;;;18.80;16.60;;;;;;;;;;7379851;19;20240;-80
2022/06/02 01:35:37;;;;;;;20.43;18.07;;;;;;;;;;7381732;19;20422;-79
2022/06/02 01:38:08;;;;;;;18.63;16.53;;;;;;;;;;7391568;19;20471;-78
2022/06/02 01:40:40;;;;;;;19.73;16.87;;;;;;;;;;7386429;19;20164;-80
2022/06/02 01:43:23;;;;;;;20.57;18.63;;;;;;;;;;7388520;19;20137;-79
2022/06/02 01:45:52;;;;;;;19.77;17.70;;;;;;;;;;7384497;19;20175;-78
2022/06/02 01:48:25;;;;;;;19.00;17.03;;;;;;;;;;7381607;19;20516;-79
2022/06/02 01:50:52;;;;;;;19.17;17.17;;;;;;;;;;7404967;19;20168;-79
2022/06/02 01:53:37;;;;;;;21.17;19.00;;;;;;;;;;7401574;19;20129;-79
2022/06/02 01:56:03;;;;;;;19.57;17.20;;;;;;;;;;7399067;19;21858;-79
2022/06/02 01:58:32;;;;;;;20.83;18.83;;;;;;;;;;7377152;19;20152;-79
2022/06/02 02:01:16;;;;;;;20.27;18.17;;;;;;;;;;7382713;19;20150;-79
2022/06/02 02:03:51;;;;;;;19.63;17.73;;;;;;;;;;7380658;19;20121;-78
2022/06/02 02:06:23;;;;;;;22.20;18.27;;;;;;;;;;7395473;19;20144;-78
2022/06/02 02:08:49;;;;;;;18.97;17.17;;;;;;;;;;7404251;19;20541;-78
2022/06/02 02:11:25;;;;;;;19.70;17.83;;;;;;;;;;7406047;19;20655;-81
2022/06/02 02:13:50;;;;;;;20.23;18.30;;;;;;;;;;7403262;19;20129;-79
2022/06/02 02:16:24;;;;;;;20.77;18.13;;;;;;;;;;7378948;19;20163;-80
2022/06/02 02:19:05;;;;;;;19.23;17.23;;;;;;;;;;7383818;19;20137;-79
2022/06/02 02:21:40;;;;;;;18.73;16.83;;;;;;;;;;7378658;19;20140;-79
2022/06/02 02:24:20;;;;;;;16.93;14.80;;;;;;;;;;7389130;19;20526;-79
2022/06/02 02:26:52;;;;;;;18.17;14.43;;;;;;;;;;7387414;19;20241;-79
2022/06/02 02:29:23;;;;;;;17.53;14.83;;;;;;;;;;7388690;19;20602;-79
2022/06/02 02:32:08;;;;;;;15.60;13.53;;;;;;;;;;7380194;19;20144;-78
2022/06/02 02:34:49;;;;;;;14.93;13.00;;;;;;;;;;7385232;19;20449;-78
2022/06/02 02:37:22;;;;;;;16.47;14.67;;;;;;;;;;7370687;19;20144;-78
2022/06/02 02:39:54;;;;;;;19.60;14.60;;;;;;;;;;7379461;19;20548;-79
2022/06/02 02:42:51;;;;;;;16.37;13.70;;;;;;;;;;7378318;19;20532;-79
2022/06/02 02:45:29;;;;;;;16.27;13.60;;;;;;;;;;7381920;19;20176;-79
2022/06/02 02:48:00;;;;;;;15.10;13.33;;;;;;;;;;7387013;19;20615;-79
2022/06/02 02:50:26;;;;;;;16.63;13.37;;;;;;;;;;7383634;19;20136;-79
2022/06/02 02:52:56;;;;;;;15.07;13.53;;;;;;;;;;7371288;19;20152;-79
2022/06/02 02:55:42;;;;;;;15.97;13.67;;;;;;;;;;7384552;19;20172;-79
2022/06/02 02:58:14;;;;;;;16.80;13.93;;;;;;;;;;7389325;19;20156;-78
2022/06/02 03:00:46;;;;;;;19.30;13.73;;;;;;;;;;7385734;19;20176;-79
2022/06/02 03:03:25;;;;;;;14.60;13.03;;;;;;;;;;7386706;19;20178;-78
2022/06/02 03:06:01;;;;;;;15.20;13.40;;;;;;;;;;7380941;19;20515;-79
2022/06/02 03:08:51;;;;;;;16.47;12.43;;;;;;;;;;7382495;19;20133;-78
2022/06/02 03:11:23;;;;;;;16.20;14.23;;;;;;;;;;7378438;19;20147;-79
2022/06/02 03:14:00;;;;;;;16.47;13.93;;;;;;;;;;7384581;19;20152;-79
2022/06/02 03:16:26;;;;;;;15.13;13.30;;;;;;;;;;7381171;19;20173;-80
2022/06/02 03:19:19;;;;;;;16.30;13.23;;;;;;;;;;7375105;19;20148;-80
2022/06/02 03:21:48;;;;;;;17.17;14.77;;;;;;;;;;7380464;19;20165;-77
2022/06/02 03:24:25;;;;;;;15.00;13.50;;;;;;;;;;7382576;19;20153;-78
2022/06/02 03:26:54;;;;;;;16.57;13.60;;;;;;;;;;7383067;19;20540;-81
2022/06/02 03:29:20;;;;;;;16.33;13.60;;;;;;;;;;7382839;19;20603;-79
2022/06/02 03:31:46;;;;;;;14.73;13.13;;;;;;;;;;7380361;19;20153;-80
2022/06/02 03:34:30;;;;;;;15.13;12.60;;;;;;;;;;7379483;19;20638;-78
2022/06/02 03:36:56;;;;;;;13.90;12.37;;;;;;;;;;7383329;19;20638;-78
2022/06/02 03:39:28;;;;;;;14.33;12.93;;;;;;;;;;7378470;19;20580;-78
2022/06/02 03:42:10;;;;;;;17.30;13.27;;;;;;;;;;7388051;19;20200;-78
2022/06/02 03:44:36;;;;;;;19.30;15.03;;;;;;;;;;7386417;19;20121;-78
2022/06/02 03:47:05;;;;;;;18.70;14.53;;;;;;;;;;7379269;19;20168;-78
2022/06/02 03:49:50;;;;;;;17.77;15.60;;;;;;;;;;7384270;19;20168;-83
2022/06/02 03:52:22;;;;;;;16.20;14.17;;;;;;;;;;7377943;19;20152;-78
2022/06/02 03:55:00;;;;;;;17.20;15.30;;;;;;;;;;7382391;19;20148;-78
2022/06/02 03:57:29;;;;;;;18.27;15.13;;;;;;;;;;7382141;19;20136;-78
2022/06/02 04:00:03;;;;;;;16.17;13.43;;;;;;;;;;7377564;19;20477;-79
2022/06/02 04:02:32;;;;;;;18.47;15.27;;;;;;;;;;7379614;19;20126;-79
2022/06/02 04:05:17;;;;;;;20.60;16.30;;;;;;;;;;7381073;19;20489;-79
2022/06/02 04:07:51;;;;;;;17.60;15.20;;;;;;;;;;7382352;19;20161;-79
2022/06/02 04:10:37;;;;;;;17.07;15.17;;;;;;;;;;7380573;19;20664;-79
2022/06/02 04:13:40;;;;;;;20.10;16.33;;;;;;;;;;7378790;19;20524;-79
2022/06/02 04:16:09;;;;;;;21.53;16.30;;;;;;;;;;7376959;19;20188;-78
2022/06/02 04:18:43;;;;;;;19.73;15.27;;;;;;;;;;7382874;19;20175;-78
2022/06/02 04:21:15;;;;;;;18.27;15.87;;;;;;;;;;7385985;19;20159;-79
2022/06/02 04:23:50;;;;;;;18.40;15.77;;;;;;;;;;7388221;19;20153;-79
2022/06/02 04:26:28;;;;;;;18.33;16.27;;;;;;;;;;7381606;19;20192;-77
2022/06/02 04:28:54;;;;;;;20.87;16.43;;;;;;;;;;7388852;19;20129;-79
2022/06/02 04:31:23;;;;;;;21.70;15.90;;;;;;;;;;7391028;19;20143;-77
2022/06/02 04:33:56;;;;;;;20.67;17.77;;;;;;;;;;7403387;19;20185;-79
2022/06/02 04:36:27;;;;;;;19.60;16.10;;;;;;;;;;7404922;19;20153;-79
2022/06/02 04:39:07;;;;;;;20.77;16.27;;;;;;;;;;7395467;19;20133;-78
2022/06/02 04:41:43;;;;;;;19.70;17.07;;;;;;;;;;7391163;19;20142;-82
2022/06/02 04:44:21;;;;;;;19.73;16.00;;;;;;;;;;7391871;19;20159;-79
2022/06/02 04:46:53;;;;;;;21.50;15.93;;;;;;;;;;7385852;19;20196;-79
2022/06/02 04:49:36;;;;;;;20.97;16.23;;;;;;;;;;7392513;19;20607;-79
2022/06/02 04:52:15;;;;;;;18.57;15.17;;;;;;;;;;7385019;19;20173;-78
2022/06/02 04:55:01;;;;;;;20.40;16.63;;;;;;;;;;7389468;19;20152;-78
2022/06/02 04:57:27;;;;;;;18.53;15.83;;;;;;;;;;7391671;19;20133;-79
2022/06/02 05:00:12;;;;;;;17.73;15.87;;;;;;;;;;7393870;19;20121;-81
2022/06/02 05:02:47;;;;;;;17.70;16.00;;;;;;;;;;7391460;19;20137;-79
2022/06/02 05:05:16;;;;;;;19.13;16.40;;;;;;;;;;7388720;19;20179;-79
2022/06/02 05:07:42;;;;;;;19.70;15.97;;;;;;;;;;7384202;19;20208;-77
2022/06/02 05:10:27;;;;;;;16.70;15.00;;;;;;;;;;7391213;19;20227;-81
2022/06/02 05:12:56;;;;;;;17.20;15.27;;;;;;;;;;7390950;19;20209;-78
2022/06/02 05:15:25;;;;;;;17.53;14.33;;;;;;;;;;7383305;19;20181;-79
2022/06/02 05:18:09;;;;;;;18.77;15.60;;;;;;;;;;7390519;19;20152;-77
2022/06/02 05:20:38;;;;;;;18.20;16.23;;;;;;;;;;7388835;19;20153;-79
2022/06/02 05:23:04;;;;;;;16.63;14.90;;;;;;;;;;7392582;19;20129;-79
2022/06/02 05:25:46;;;;;;;18.27;16.17;;;;;;;;;;7387072;19;20173;-79
2022/06/02 05:28:13;;;;;;;18.60;16.70;;;;;;;;;;7387450;19;20125;-79
2022/06/02 05:30:52;;;;;;;18.67;16.77;;;;;;;;;;7382455;19;20156;-78
2022/06/02 05:33:18;;;;;;;19.30;17.17;;;;;;;;;;7387661;19;20137;-80
2022/06/02 05:35:44;;;;;;;22.20;18.07;;;;;;;;;;7387783;19;20204;-82
2022/06/02 05:38:22;;;;;;;19.53;17.33;;;;;;;;;;7386044;19;20238;-79
2022/06/02 05:41:00;;;;;;;20.17;17.77;;;;;;;;;;7385336;19;20465;-78
2022/06/02 05:43:38;;;;;;;24.80;18.83;;;;;;;;;;7390070;19;20156;-79
2022/06/02 05:46:04;;;;;;;18.97;17.00;;;;;;;;;;7387934;19;20157;-80
2022/06/02 05:48:37;;;;;;;20.83;17.97;;;;;;;;;;7386656;19;20155;-77
2022/06/02 05:51:15;;;;;;;20.77;17.93;;;;;;;;;;7388750;19;20544;-79
2022/06/02 05:53:51;;;;;;;21.37;18.77;;;;;;;;;;7383444;19;20640;-81
2022/06/02 05:56:35;;;;;;;22.23;18.13;;;;;;;;;;7390099;19;20180;-80
2022/06/02 05:59:08;;;;;;;20.90;17.67;;;;;;;;;;7387347;19;20209;-80
2022/06/02 06:01:34;;;;;;;20.63;18.20;;;;;;;;;;7378869;19;20152;-78
2022/06/02 06:04:03;;;;;;;19.40;17.20;;;;;;;;;;7375443;19;20163;-78
2022/06/02 06:06:58;;;;;;;22.77;18.70;;;;;;;;;;7381461;19;20245;-80
2022/06/02 06:09:40;;;;;;;21.52;16.52;;;;;;;;;;7383884;19;20152;-79
2022/06/02 06:12:15;;;;;;;20.73;17.33;;;;;;;;;;7376431;19;20196;-79
2022/06/02 06:14:46;;;;;;;18.07;16.17;;;;;;;;;;7389060;19;20156;-81
2022/06/02 06:17:22;;;;;;;19.33;17.33;;;;;;;;;;7389486;19;20172;-79
2022/06/02 06:19:48;;;;;;;18.60;16.77;;;;;;;;;;7388518;19;20121;-79
2022/06/02 06:22:20;;;;;;;19.35;17.38;;;;;;;;;;7388891;19;20218;-80
2022/06/02 06:24:46;;;;;;;19.25;16.10;;;;;;;;;;7393038;19;20143;-79
2022/06/02 06:27:16;;;;;;;17.08;14.85;;;;;;;;;;7388835;19;20148;-79
2022/06/02 06:29:45;;;;;;;17.73;16.00;;;;;;;;;;7391064;19;20156;-79
2022/06/02 06:32:20;;;;;;;16.83;15.07;;;;;;;;;;7390537;19;20157;-80
2022/06/02 06:34:50;;;;;;;17.30;15.55;;;;;;;;;;7389639;19;20144;-79
2022/06/02 06:37:28;;;;;;;16.65;15.02;;;;;;;;;;7389524;19;20178;-79
2022/06/02 06:39:54;;;;;;;14.77;13.23;;;;;;;;;;7388088;19;20155;-79
2022/06/02 06:42:23;;;;;;;16.60;14.45;;;;;;;;;;7391433;19;20156;-80
2022/06/02 06:44:54;;;;;;;16.15;14.65;;;;;;;;;;7389278;19;20153;-81
2022/06/02 06:47:33;;;;;;;16.73;15.02;;;;;;;;;;7389462;19;20598;-80
2022/06/02 06:50:08;;;;;;;16.00;14.40;;;;;;;;;;7388823;19;20171;-79
2022/06/02 06:52:53;;;;;;;16.75;13.98;;;;;;;;;;7386108;19;20361;-81
2022/06/02 06:55:35;;;;;;;14.25;12.85;;;;;;;;;;7389325;19;20159;-79
2022/06/02 06:58:05;;;;;;;16.48;13.05;;;;;;;;;;7386395;19;20145;-78
2022/06/02 07:00:42;;;;;;;15.43;13.88;;;;;;;;;;7389631;19;20140;-78
2022/06/02 07:03:08;;;;;;;14.23;13.00;;;;;;;;;;7424899;19;20146;-79
2022/06/02 07:05:48;;;;;;;12.43;11.13;;;;;;;;;;7423168;19;20181;-80
2022/06/02 07:08:20;;;;;;;12.85;11.57;;;;;;;;;;7423108;19;20395;-79
2022/06/02 07:10:46;;;;;;;14.23;12.82;;;;;;;;;;7420891;19;20149;-78
2022/06/02 07:13:15;;;;;;;11.50;10.50;;;;;;;;;;7414804;19;20159;-79
2022/06/02 07:15:57;;;;;;;12.13;11.02;;;;;;;;;;7386672;19;20272;-80
2022/06/02 07:18:42;;;;;;;11.07;10.07;;;;;;;;;;7387597;19;20161;-79
2022/06/02 07:21:27;;;;;;;13.02;11.90;;;;;;;;;;7387396;19;20144;-79
2022/06/02 07:24:08;;;;;;;12.00;10.80;;;;;;;;;;7385947;19;20156;-79
2022/06/02 07:26:45;;;;;;;11.25;10.23;;;;;;;;;;7385188;19;20240;-79
2022/06/02 07:29:29;;;;;;;11.75;10.65;;;;;;;;;;7389213;19;20154;-79
2022/06/02 07:32:14;;;;;;;12.18;11.00;;;;;;;;;;7387641;19;20132;-79
2022/06/02 07:35:03;;;;;;;11.77;10.70;;;;;;;;;;7387901;19;20232;-79
2022/06/02 07:37:33;;;;;;;12.77;10.95;;;;;;;;;;7386677;19;20556;-78
2022/06/02 07:40:11;;;;;;;11.63;10.55;;;;;;;;;;7387060;19;20121;-79
2022/06/02 07:42:43;;;;;;;12.00;10.82;;;;;;;;;;7391006;19;20493;-78
2022/06/02 07:45:12;;;;;;;11.63;10.40;;;;;;;;;;7384445;19;20187;-78
2022/06/02 07:47:44;;;;;;;13.30;12.15;;;;;;;;;;7383504;19;20129;-80
2022/06/02 07:50:10;;;;;;;12.90;11.68;;;;;;;;;;7383478;19;20133;-78
2022/06/02 07:52:39;;;;;;;13.63;12.15;;;;;;;;;;7383336;19;20148;-78
2022/06/02 07:55:25;;;;;;;13.63;12.32;;;;;;;;;;7386578;19;20564;-78
2022/06/02 07:57:51;;;;;;;12.50;11.40;;;;;;;;;;7389358;19;20472;-78
2022/06/02 08:00:19;;;;;;;14.73;13.38;;;;;;;;;;7387556;19;20415;-79
2022/06/02 08:03:11;;;;;;;15.30;13.77;;;;;;;;;;7397222;19;20637;-78
2022/06/02 08:05:45;;;;;;;14.65;13.27;;;;;;;;;;7398131;19;20145;-79
2022/06/02 08:08:15;;;;;;;14.52;12.43;;;;;;;;;;7382598;19;20512;-79
2022/06/02 08:10:47;;;;;;;14.52;13.07;;;;;;;;;;7393796;19;20136;-78
2022/06/02 08:13:32;;;;;;;14.73;13.38;;;;;;;;;;7386448;19;20141;-78
2022/06/02 08:16:00;;;;;;;13.75;12.50;;;;;;;;;;7383355;19;20189;-78
2022/06/02 08:18:33;;;;;;;12.23;11.15;;;;;;;;;;7388405;19;20200;-78
2022/06/02 08:21:15;;;;;;;13.65;12.43;;;;;;;;;;7390231;19;20117;-78
2022/06/02 08:24:02;;;;;;;14.43;12.95;;;;;;;;;;7387818;19;20137;-78
2022/06/02 08:26:34;;;;;;;11.70;10.55;;;;;;;;;;7388802;19;20525;-78
2022/06/02 08:29:08;;;;;;;12.10;11.02;;;;;;;;;;7389957;19;20619;-79
2022/06/02 08:31:52;;;;;;;13.75;11.80;;;;;;;;;;7391232;19;20135;-79
2022/06/02 08:34:22;;;;;;;24.67;11.45;;;;;;;;;;7386810;19;20153;-79
2022/06/02 08:37:01;;;;;;;11.90;10.40;;;;;;;;;;7385955;19;21220;-79
2022/06/02 08:39:34;;;;;;;11.65;10.50;;;;;;;;;;7381557;19;20152;-78
2022/06/02 08:42:03;;;;;;;12.10;10.93;;;;;;;;;;7390765;19;20212;-79
2022/06/02 08:44:37;;;;;;;13.95;11.90;;;;;;;;;;7384318;19;20638;-79
2022/06/02 08:47:22;;;;;;;11.73;10.68;;;;;;;;;;7390079;19;20171;-78
2022/06/02 08:50:11;;;;;;;12.70;11.40;;;;;;;;;;7390823;19;20182;-79
2022/06/02 08:52:55;;;;;;;13.77;12.38;;;;;;;;;;7407880;19;20129;-79
2022/06/02 08:55:22;;;;;;;12.90;11.68;;;;;;;;;;7398376;19;20149;-78
2022/06/02 08:58:03;;;;;;;12.57;11.38;;;;;;;;;;7402425;19;20129;-78
2022/06/02 09:00:37;;;;;;;12.93;11.23;;;;;;;;;;7390042;19;20641;-78
2022/06/02 09:03:12;;;;;;;13.48;11.38;;;;;;;;;;7391454;19;20693;-78
2022/06/02 09:05:45;;;;;;;36.10;12.07;;;;;;;;;;7380142;19;20144;-79
2022/06/02 09:08:11;;;;;;;11.15;10.05;;;;;;;;;;7380374;19;20148;-78
2022/06/02 09:10:43;;;;;;;11.15;10.05;;;;;;;;;;7392565;19;20153;-79
2022/06/02 09:13:28;;;;;;;12.38;11.23;;;;;;;;;;7384893;19;20188;-79
2022/06/02 09:16:04;;;;;;;10.00;9.05;;;;;;;;;;7390091;19;20514;-77
2022/06/02 09:18:49;;;;;;;10.50;9.50;;;;;;;;;;7388605;19;20506;-78
2022/06/02 09:21:21;;;;;;;11.95;10.75;;;;;;;;;;7392732;19;20697;-78
2022/06/02 09:23:49;;;;;;;13.20;11.70;;;;;;;;;;7392922;19;20151;-78
2022/06/02 09:26:34;;;;;;;10.57;9.57;;;;;;;;;;7390475;19;20622;-77
2022/06/02 09:29:13;;;;;;;11.23;10.02;;;;;;;;;;7387874;19;20153;-78
2022/06/02 09:31:57;;;;;;;10.55;9.50;;;;;;;;;;7383074;19;20548;-80
2022/06/02 09:34:24;;;;;;;12.85;11.65;;;;;;;;;;7387270;19;20132;-78
2022/06/02 09:36:50;;;;;;;14.85;11.50;;;;;;;;;;7386396;19;20539;-78
2022/06/02 09:39:23;;;;;;;12.52;10.40;;;;;;;;;;7389132;19;20491;-78
2022/06/02 09:42:19;;;;;;;13.13;11.93;;;;;;;;;;7390455;19;20140;-79
2022/06/02 09:44:48;;;;;;;12.07;10.93;;;;;;;;;;7390999;19;20224;-79
2022/06/02 09:47:27;;;;;;;11.52;9.52;;;;;;;;;;7393288;19;20133;-79
2022/06/02 09:50:12;;;;;;;12.40;10.07;;;;;;;;;;7390917;19;20229;-79
2022/06/02 09:52:49;;;;;;;11.63;9.18;;;;;;;;;;7387572;19;20129;-79
2022/06/02 09:55:15;;;;;;;11.55;10.45;;;;;;;;;;7389930;19;20155;-79
2022/06/02 09:58:02;;;;;;;11.07;9.77;;;;;;;;;;7389745;19;20157;-80
2022/06/02 10:00:46;;;;;;;12.30;10.95;;;;;;;;;;7392012;19;20137;-80
2022/06/02 10:03:24;;;;;;;10.35;9.45;;;;;;;;;;7383982;19;20646;-80
2022/06/02 10:05:50;;;;;;;10.60;9.52;;;;;;;;;;7373506;19;20220;-80
2022/06/02 10:08:35;;;;;;;9.45;8.23;;;;;;;;;;7383057;19;20162;-79
2022/06/02 10:11:19;;;;;;;9.88;9.07;;;;;;;;;;7380334;19;20149;-78
2022/06/02 10:13:48;;;;;;;12.73;9.52;;;;;;;;;;7388067;19;20891;-78
2022/06/02 10:16:24;;;;;;;11.63;10.32;;;;;;;;;;7389987;19;20614;-80
2022/06/02 10:19:08;;;;;;;11.48;10.30;;;;;;;;;;7391809;19;20133;-80
2022/06/02 10:21:38;;;;;;;11.80;10.73;;;;;;;;;;7387629;19;20212;-78
2022/06/02 10:24:34;;;;;;;10.35;9.48;;;;;;;;;;7387622;19;20161;-78
2022/06/02 10:27:20;;;;;;;9.80;8.70;;;;;;;;;;7381559;19;20610;-78
2022/06/02 10:30:05;;;;;;;10.75;9.65;;;;;;;;;;7384328;19;20148;-79
2022/06/02 10:32:50;;;;;;;8.45;7.75;;;;;;;;;;7388770;19;20121;-79
2022/06/02 10:35:19;;;;;;;8.23;7.53;;;;;;;;;;7387892;19;20522;-78
2022/06/02 10:37:48;;;;;;;8.48;7.65;;;;;;;;;;7390034;19;20148;-78
2022/06/02 10:40:23;;;;;;;6.88;6.20;;;;;;;;;;7384386;19;20176;-78
2022/06/02 10:42:55;;;;;;;8.43;7.55;;;;;;;;;;7387148;19;20148;-79
2022/06/02 10:45:24;;;;;;;8.73;7.93;;;;;;;;;;7386948;19;20309;-79
2022/06/02 10:47:53;;;;;;;8.20;7.47;;;;;;;;;;7387025;19;20614;-79
2022/06/02 10:50:26;;;;;;;7.40;6.70;;;;;;;;;;7387148;19;20155;-79
2022/06/02 10:52:58;;;;;;;8.02;7.05;;;;;;;;;;7386065;19;20129;-78
2022/06/02 10:55:42;;;;;;;7.10;6.40;;;;;;;;;;7386688;19;20152;-79
2022/06/02 10:58:08;;;;;;;7.60;6.93;;;;;;;;;;7388164;19;20610;-79
2022/06/02 11:00:34;;;;;;;11.27;6.18;;;;;;;;;;7388481;19;22084;-80
2022/06/02 11:03:00;;;;;;;6.18;5.57;;;;;;;;;;7390167;19;20939;-80
2022/06/02 11:05:45;;;;;;;6.50;5.95;;;;;;;;;;7392426;19;20502;-80
2022/06/02 11:08:33;;;;;;;7.18;6.50;;;;;;;;;;7388244;19;20541;-81
2022/06/02 11:11:18;;;;;;;8.32;7.63;;;;;;;;;;7390329;19;20164;-80
2022/06/02 11:13:53;;;;;;;6.63;6.03;;;;;;;;;;7392463;19;20121;-81
2022/06/02 11:16:38;;;;;;;7.25;6.65;;;;;;;;;;7389963;19;20152;-80
2022/06/02 11:19:32;;;;;;;8.18;6.72;;;;;;;;;;7385478;19;20157;-78
2022/06/02 11:22:16;;;;;;;6.88;6.20;;;;;;;;;;7388176;19;20137;-79
2022/06/02 11:24:51;;;;;;;6.10;5.57;;;;;;;;;;7413379;19;20148;-80
2022/06/02 11:27:20;;;;;;;5.97;5.38;;;;;;;;;;7412105;19;20144;-79
2022/06/02 11:29:59;;;;;;;5.97;5.47;;;;;;;;;;7392992;19;20160;-80
2022/06/02 11:32:35;;;;;;;6.10;5.60;;;;;;;;;;7388895;19;20140;-79
2022/06/02 11:35:04;;;;;;;6.22;5.60;;;;;;;;;;7388813;19;20148;-79
2022/06/02 11:37:45;;;;;;;6.60;5.95;;;;;;;;;;7390378;19;20137;-79
2022/06/02 11:40:23;;;;;;;6.00;5.50;;;;;;;;;;7405492;19;20121;-79
2022/06/02 11:43:02;;;;;;;6.63;5.68;;;;;;;;;;7399567;19;20476;-79
2022/06/02 11:45:34;;;;;;;7.50;5.35;;;;;;;;;;7386361;19;20192;-79
2022/06/02 11:48:03;;;;;;;6.55;6.05;;;;;;;;;;7387569;19;20529;-79
2022/06/02 11:50:38;;;;;;;6.68;5.93;;;;;;;;;;7377487;19;20158;-79
2022/06/02 11:53:23;;;;;;;6.75;6.13;;;;;;;;;;7383614;19;20179;-80
2022/06/02 11:55:49;;;;;;;6.30;5.80;;;;;;;;;;7384328;19;20171;-80
2022/06/02 11:58:21;;;;;;;7.95;6.65;;;;;;;;;;7382160;19;20165;-79
2022/06/02 12:01:10;;;;;;;6.40;5.80;;;;;;;;;;7384590;19;20145;-80
2022/06/02 12:03:56;;;;;;;5.90;5.35;;;;;;;;;;7378695;19;20129;-80
2022/06/02 12:06:31;;;;;;;11.90;6.97;;;;;;;;;;7380944;19;20164;-79
2022/06/02 12:09:12;;;;;;;5.82;4.93;;;;;;;;;;7377348;19;20611;-80
2022/06/02 12:11:50;;;;;;;5.45;4.95;;;;;;;;;;7384812;19;20153;-81
2022/06/02 12:14:33;;;;;;;5.28;4.85;;;;;;;;;;7386011;19;20131;-81
2022/06/02 12:16:59;;;;;;;6.03;5.38;;;;;;;;;;7384559;19;20204;-81
2022/06/02 12:19:42;;;;;;;5.38;4.72;;;;;;;;;;7390877;19;20121;-81
2022/06/02 12:22:14;;;;;;;59.33;12.20;;;;;;;;;;7387499;19;20604;-82
2022/06/02 12:24:59;;;;;;;5.00;4.28;;;;;;;;;;7383395;19;20141;-80
2022/06/02 12:28:04;;;;;;;5.95;5.45;;;;;;;;;;7381312;19;20224;-80
2022/06/02 12:30:39;;;;;;;6.28;5.68;;;;;;;;;;7376451;19;20781;-80
2022/06/02 12:33:16;;;;;;;5.78;5.13;;;;;;;;;;7383049;19;20475;-80
2022/06/02 12:35:42;;;;;;;5.93;4.75;;;;;;;;;;7382377;19;20198;-80
2022/06/02 12:38:11;;;;;;;8.73;4.05;;;;;;;;;;7387055;19;20129;-80
2022/06/02 12:40:37;;;;;;;5.38;4.88;;;;;;;;;;7383061;19;20629;-80
2022/06/02 12:43:03;;;;;;;5.60;5.07;;;;;;;;;;7388971;19;20160;-81
2022/06/02 12:45:32;;;;;;;6.07;5.57;;;;;;;;;;7390738;19;21403;-79
2022/06/02 12:48:18;;;;;;;6.60;4.80;;;;;;;;;;7394772;19;20141;-80
2022/06/02 12:50:56;;;;;;;5.65;5.15;;;;;;;;;;7392613;19;20181;-78
2022/06/02 12:53:34;;;;;;;7.25;4.03;;;;;;;;;;7389878;19;20483;-78
2022/06/02 12:56:19;;;;;;;5.53;5.03;;;;;;;;;;7378710;19;20155;-78
2022/06/02 12:59:00;;;;;;;4.68;4.25;;;;;;;;;;7383662;19;20682;-78
2022/06/02 13:01:35;;;;;;;6.00;4.88;;;;;;;;;;7386351;19;20135;-79
2022/06/02 13:04:04;;;;;;;7.00;4.40;;;;;;;;;;7389141;19;20140;-78
2022/06/02 13:06:30;;;;;;;6.00;5.28;;;;;;;;;;7382497;19;20177;-78
2022/06/02 13:09:12;;;;;;;5.60;5.05;;;;;;;;;;7389671;19;20216;-79
